Time;durP1;ratioP1;P1;durP2;ratioP2;P2;SDS_P1;SDS_P2;PMS_P1;PMS_P2;Temp;Humidity;BMP_temperature;BMP_pressure;BME280_temperature;BME280_humidity;BME280_pressure;Samples;Min_cycle;Max_cycle;Signal;HPM_P1;HPM_P2
2023/05/10 00:02:22;;;;;;;;;2.00;1.00;;;;;21.89;48.76;100638.88;5075537;27;71324;-75
2023/05/10 00:04:47;;;;;;;;;1.00;1.00;;;;;21.88;48.82;100648.66;5063581;28;45342;-75
2023/05/10 00:07:13;;;;;;;;;0.00;0.00;;;;;21.86;48.68;100633.75;5066764;28;67240;-75
2023/05/10 00:09:38;;;;;;;;;2.00;0.75;;;;;21.87;48.97;100641.66;5076095;27;45280;-75
2023/05/10 00:12:04;;;;;;;;;1.25;1.00;;;;;21.90;49.07;100651.19;5065368;27;65623;-75
2023/05/10 00:14:30;;;;;;;;;1.25;1.00;;;;;21.88;49.18;100643.31;5070297;27;46118;-75
2023/05/10 00:16:55;;;;;;;;;0.25;0.25;;;;;21.86;49.21;100637.25;5066399;28;45444;-75
2023/05/10 00:19:20;;;;;;;;;1.50;1.00;;;;;21.88;48.97;100655.81;5074433;27;45777;-74
2023/05/10 00:21:46;;;;;;;;;1.25;1.00;;;;;21.88;49.03;100648.66;5067347;27;45477;-75
2023/05/10 00:24:11;;;;;;;;;1.00;1.00;;;;;21.87;49.27;100640.78;5076716;27;45297;-75
2023/05/10 00:26:37;;;;;;;;;1.50;0.25;;;;;21.86;48.67;100641.75;5064693;28;47031;-75
2023/05/10 00:29:02;;;;;;;;;1.25;0.00;;;;;21.87;49.03;100646.09;5060617;28;63264;-75
2023/05/10 00:31:27;;;;;;;;;1.00;1.00;;;;;21.85;49.19;100643.56;5075217;28;45281;-75
2023/05/10 00:33:53;;;;;;;;;3.00;1.00;;;;;21.87;48.72;100638.09;5070916;27;67246;-75
2023/05/10 00:36:18;;;;;;;;;1.00;1.00;;;;;21.86;48.56;100641.75;5068125;27;45515;-74
2023/05/10 00:38:43;;;;;;;;;1.00;1.00;;;;;21.85;49.24;100637.38;5068451;27;65787;-74
2023/05/10 00:41:09;;;;;;;;;2.00;2.00;;;;;21.85;49.08;100643.56;5066776;27;67391;-75
2023/05/10 00:43:34;;;;;;;;;1.75;0.50;;;;;21.84;49.14;100655.19;5070450;27;46060;-74
2023/05/10 00:46:00;;;;;;;;;0.25;0.25;;;;;21.84;48.50;100657.00;5073317;28;45744;-74
2023/05/10 00:48:25;;;;;;;;;2.25;0.50;;;;;21.85;49.19;100659.56;5065161;28;45534;-74
2023/05/10 00:50:51;;;;;;;;;1.25;1.00;;;;;21.82;48.66;100659.78;5063578;28;45477;-75
2023/05/10 00:53:16;;;;;;;;;0.25;0.25;;;;;21.85;49.17;100664.03;5067550;28;45399;-74
2023/05/10 00:55:42;;;;;;;;;2.00;1.00;;;;;21.83;48.85;100666.78;5080445;27;45724;-75
2023/05/10 00:58:07;;;;;;;;;0.00;0.00;;;;;21.83;49.07;100666.78;5069878;27;66681;-75
2023/05/10 01:00:33;;;;;;;;;2.00;0.25;;;;;21.84;48.93;100671.16;5071623;28;50124;-75
2023/05/10 01:02:59;;;;;;;;;0.25;0.25;;;;;21.83;48.74;100661.47;5069489;27;46402;-74
2023/05/10 01:05:24;;;;;;;;;1.25;1.25;;;;;21.83;48.55;100665.97;5064495;27;47956;-74
2023/05/10 01:07:50;;;;;;;;;1.50;1.00;;;;;21.82;48.43;100664.28;5064029;27;45500;-74
2023/05/10 01:10:16;;;;;;;;;0.25;0.00;;;;;21.83;48.74;100668.63;5086490;27;45823;-74
2023/05/10 01:12:44;;;;;;;;;0.75;0.25;;;;;21.80;48.90;100665.22;5069874;27;45605;-74
2023/05/10 01:15:11;;;;;;;;;0.00;0.00;;;;;21.81;48.85;100671.41;5057243;28;45483;-74
2023/05/10 01:17:38;;;;;;;;;1.75;1.00;;;;;21.80;48.55;100667.06;5068529;27;45525;-75
2023/05/10 01:20:03;;;;;;;;;1.25;1.25;;;;;21.81;48.63;100674.06;5073541;27;45463;-75
2023/05/10 01:22:42;;;;;;;;;1.00;0.25;;;;;21.81;48.30;100668.72;5070404;27;46561;-75
2023/05/10 01:25:12;;;;;;;;;2.00;0.25;;;;;21.80;48.90;100659.91;5076640;27;45598;-74
2023/05/10 01:28:15;;;;;;;;;0.00;0.00;;;;;21.81;48.43;100663.41;5059602;28;45527;-74
2023/05/10 01:30:55;;;;;;;;;1.00;1.00;;;;;21.80;48.91;100662.56;5067751;27;45500;-74
2023/05/10 01:33:37;;;;;;;;;0.25;0.25;;;;;21.78;48.42;100664.50;5063049;27;45470;-74
2023/05/10 01:36:11;;;;;;;;;0.50;0.00;;;;;21.76;48.54;100668.22;5071816;27;45543;-74
2023/05/10 01:38:49;;;;;;;;;0.75;0.00;;;;;21.77;48.35;100672.59;5076852;27;45314;-74
2023/05/10 01:41:19;;;;;;;;;0.00;0.00;;;;;21.78;48.74;100679.63;5061258;28;45625;-74
2023/05/10 01:44:09;;;;;;;;;2.00;0.00;;;;;21.76;48.34;100670.88;5072648;27;46553;-74
2023/05/10 01:46:39;;;;;;;;;0.00;0.00;;;;;21.77;48.43;100669.94;5057706;27;45662;-74
2023/05/10 01:49:11;;;;;;;;;0.00;0.00;;;;;21.75;48.49;100672.72;5065797;27;45339;-74
2023/05/10 01:51:51;;;;;;;;;1.25;0.25;;;;;21.74;48.40;100676.34;5070485;27;45842;-74
2023/05/10 01:54:18;;;;;;;;;0.00;0.00;;;;;21.75;48.47;100671.88;5079037;27;48284;-74
2023/05/10 01:56:45;;;;;;;;;0.00;0.00;;;;;21.74;48.91;100675.50;5075522;27;45577;-74
2023/05/10 01:59:15;;;;;;;;;1.00;0.25;;;;;21.74;48.38;100678.16;5076066;27;45371;-75
2023/05/10 02:01:41;;;;;;;;;1.25;0.00;;;;;21.73;48.57;100681.78;5064982;27;45379;-74
2023/05/10 02:04:08;;;;;;;;;1.00;1.00;;;;;21.71;48.38;100673.91;5074348;27;55202;-75
2023/05/10 02:06:34;;;;;;;;;0.00;0.00;;;;;21.72;48.62;100666.78;5068126;28;45484;-75
2023/05/10 02:09:01;;;;;;;;;2.00;0.00;;;;;21.71;48.34;100681.91;5074736;27;67572;-74
2023/05/10 02:11:27;;;;;;;;;0.00;0.00;;;;;21.73;48.69;100681.78;5071371;28;45407;-75
2023/05/10 02:13:53;;;;;;;;;0.25;0.00;;;;;21.69;48.69;100675.84;5076866;27;45513;-74
2023/05/10 02:16:23;;;;;;;;;0.00;0.00;;;;;21.72;48.78;100680.09;5051339;28;45646;-75
2023/05/10 02:18:50;;;;;;;;;1.00;0.00;;;;;21.71;48.78;100684.56;5062506;28;45715;-75
2023/05/10 02:21:17;;;;;;;;;2.00;1.00;;;;;21.71;48.62;100689.03;5068792;28;45731;-74
2023/05/10 02:23:42;;;;;;;;;1.00;0.00;;;;;21.69;48.75;100680.31;5078230;27;46395;-75
2023/05/10 02:26:08;;;;;;;;;1.50;0.00;;;;;21.71;48.82;100689.03;5074046;27;45425;-75
2023/05/10 02:28:35;;;;;;;;;0.00;0.00;;;;;21.69;48.66;100686.50;5075843;27;68553;-75
2023/05/10 02:31:01;;;;;;;;;0.00;0.00;;;;;21.67;48.71;100677.75;5069203;27;45529;-75
2023/05/10 02:33:27;;;;;;;;;0.00;0.00;;;;;21.69;48.77;100682.97;5067266;27;45491;-75
2023/05/10 02:35:53;;;;;;;;;1.50;0.00;;;;;21.69;48.10;100683.84;5070676;27;61567;-75
2023/05/10 02:38:20;;;;;;;;;0.00;0.00;;;;;21.69;48.65;100688.28;5066040;27;46704;-75
2023/05/10 02:40:46;;;;;;;;;0.00;0.00;;;;;21.68;48.16;100689.28;5067747;27;45477;-75
2023/05/10 02:43:14;;;;;;;;;0.00;0.00;;;;;21.67;48.09;100687.56;5069704;27;45545;-75
2023/05/10 02:45:40;;;;;;;;;0.00;0.00;;;;;21.66;48.50;100684.06;5063828;27;45453;-75
2023/05/10 02:48:06;;;;;;;;;1.75;1.00;;;;;21.67;48.42;100688.41;5069068;27;45510;-75
2023/05/10 02:50:33;;;;;;;;;0.50;0.00;;;;;21.66;48.79;100684.06;5069493;28;45402;-74
2023/05/10 02:53:07;;;;;;;;;0.00;0.00;;;;;21.67;48.72;100680.41;5079121;27;45454;-75
2023/05/10 02:55:35;;;;;;;;;0.50;0.00;;;;;21.66;48.10;100681.41;5080522;27;45268;-75
2023/05/10 02:58:02;;;;;;;;;0.00;0.00;;;;;21.67;48.11;100675.09;5070883;27;45496;-74
2023/05/10 03:00:27;;;;;;;;;1.25;0.00;;;;;21.64;48.19;100675.34;5072773;27;45487;-75
2023/05/10 03:02:53;;;;;;;;;1.00;0.00;;;;;21.65;48.29;100668.19;5057262;27;48219;-75
2023/05/10 03:05:20;;;;;;;;;0.00;0.00;;;;;21.65;47.97;100673.53;5061446;28;45366;-75
2023/05/10 03:07:45;;;;;;;;;1.00;0.00;;;;;21.64;48.59;100667.34;5058220;28;46082;-74
2023/05/10 03:10:11;;;;;;;;;0.00;0.00;;;;;21.64;48.26;100666.47;5069086;27;45681;-74
2023/05/10 03:12:58;;;;;;;;;0.00;0.00;;;;;21.65;48.40;100670.84;5067650;27;45557;-74
2023/05/10 03:15:42;;;;;;;;;0.00;0.00;;;;;21.64;48.59;100672.69;5064760;28;45423;-75
2023/05/10 03:18:16;;;;;;;;;0.75;0.75;;;;;21.65;48.33;100669.03;5075206;28;45539;-74
2023/05/10 03:20:43;;;;;;;;;0.50;0.50;;;;;21.65;48.63;100666.38;5071973;27;45673;-74
2023/05/10 03:23:18;;;;;;;;;0.00;0.00;;;;;21.63;48.38;100668.31;5071136;27;46451;-74
2023/05/10 03:25:46;;;;;;;;;0.00;0.00;;;;;21.64;48.40;100674.47;5067866;28;45797;-74
2023/05/10 03:28:14;;;;;;;;;0.00;0.00;;;;;21.63;48.61;100664.81;5058728;27;45358;-75
2023/05/10 03:30:41;;;;;;;;;0.00;0.00;;;;;21.64;48.61;100670.00;5072788;28;45589;-75
2023/05/10 03:33:07;;;;;;;;;0.00;0.00;;;;;21.61;48.06;100665.75;5076208;27;46286;-75
2023/05/10 03:35:32;;;;;;;;;1.50;0.00;;;;;21.61;48.05;100662.25;5063739;28;45402;-74
2023/05/10 03:37:57;;;;;;;;;0.50;0.00;;;;;21.62;47.97;100666.63;5064076;28;45344;-75
2023/05/10 03:40:23;;;;;;;;;0.00;0.00;;;;;21.61;48.42;100668.41;5059419;28;74256;-74
2023/05/10 03:42:49;;;;;;;;;0.00;0.00;;;;;21.61;48.22;100667.56;5055578;28;47457;-74
2023/05/10 03:45:14;;;;;;;;;2.00;0.00;;;;;21.60;47.89;100669.41;5072566;27;65643;-75
2023/05/10 03:47:40;;;;;;;;;0.00;0.00;;;;;21.60;47.99;100665.84;5080748;27;45630;-75
2023/05/10 03:50:06;;;;;;;;;0.00;0.00;;;;;21.60;48.27;100665.84;5069275;27;45299;-74
2023/05/10 03:52:31;;;;;;;;;0.00;0.00;;;;;21.59;48.58;100664.19;5068163;28;45340;-74
2023/05/10 03:54:57;;;;;;;;;0.00;0.00;;;;;21.61;48.26;100660.41;5062422;27;45409;-74
2023/05/10 03:57:22;;;;;;;;;0.50;0.00;;;;;21.59;48.28;100657.03;5069515;28;68168;-74
2023/05/10 03:59:47;;;;;;;;;0.00;0.00;;;;;21.60;48.06;100658.75;5071415;28;63317;-74
2023/05/10 04:02:13;;;;;;;;;0.00;0.00;;;;;21.60;48.37;100663.19;5074771;27;47225;-74
2023/05/10 04:04:38;;;;;;;;;0.00;0.00;;;;;21.57;48.14;100658.97;5069699;28;70439;-74
2023/05/10 04:07:03;;;;;;;;;0.00;0.00;;;;;21.60;47.99;100655.22;5066938;27;45394;-74
2023/05/10 04:09:29;;;;;;;;;0.00;0.00;;;;;21.61;48.18;100662.25;5058784;28;65401;-74
2023/05/10 04:11:54;;;;;;;;;0.00;0.00;;;;;21.59;48.42;100650.88;5075593;27;74827;-74
2023/05/10 04:14:19;;;;;;;;;0.25;0.00;;;;;21.60;48.17;100653.41;5086076;27;45347;-74
2023/05/10 04:16:45;;;;;;;;;0.00;0.00;;;;;21.60;48.27;100652.53;5071456;28;62768;-74
2023/05/10 04:19:10;;;;;;;;;0.00;0.00;;;;;21.58;48.33;100647.34;5073312;28;69593;-74
2023/05/10 04:21:36;;;;;;;;;0.25;0.00;;;;;21.60;48.05;100660.53;5056370;28;47003;-74
2023/05/10 04:24:01;;;;;;;;;0.00;0.00;;;;;21.59;48.55;100662.34;5077197;27;71485;-74
2023/05/10 04:26:26;;;;;;;;;0.00;0.00;;;;;21.57;48.04;100653.63;5073546;28;66353;-74
2023/05/10 04:28:52;;;;;;;;;0.50;0.00;;;;;21.58;48.17;100652.69;5069087;27;45421;-75
2023/05/10 04:31:17;;;;;;;;;0.00;0.00;;;;;21.57;48.25;100644.81;5070237;27;75590;-74
2023/05/10 04:33:42;;;;;;;;;0.00;0.00;;;;;21.58;48.21;100649.16;5065131;28;62996;-74
2023/05/10 04:36:08;;;;;;;;;0.50;0.50;;;;;21.58;48.38;100651.81;5067680;27;58871;-74
2023/05/10 04:38:33;;;;;;;;;0.00;0.00;;;;;21.58;47.92;100652.69;5056170;27;45225;-74
2023/05/10 04:41:09;;;;;;;;;0.25;0.00;;;;;21.59;48.40;100653.53;5068530;28;72775;-73
2023/05/10 04:43:35;;;;;;;;;0.00;0.00;;;;;21.60;48.36;100657.88;5063103;28;45470;-74
2023/05/10 04:46:01;;;;;;;;;0.00;0.00;;;;;21.57;47.76;100658.13;5073351;28;45457;-75
2023/05/10 04:48:26;;;;;;;;;0.00;0.00;;;;;21.58;48.00;100652.69;5075005;27;45449;-74
2023/05/10 04:50:52;;;;;;;;;0.00;0.00;;;;;21.60;47.93;100652.53;5070274;27;46868;-74
2023/05/10 04:53:17;;;;;;;;;0.00;0.00;;;;;21.60;47.97;100655.22;5066528;28;49306;-74
2023/05/10 04:55:42;;;;;;;;;0.00;0.00;;;;;21.59;48.00;100648.19;5064482;28;64333;-74
2023/05/10 04:58:08;;;;;;;;;0.00;0.00;;;;;21.58;48.18;100646.50;5072354;27;68846;-74
2023/05/10 05:00:33;;;;;;;;;0.00;0.00;;;;;21.59;47.88;100642.88;5071874;27;75049;-75
2023/05/10 05:02:59;;;;;;;;;0.00;0.00;;;;;21.57;48.03;100650.13;5064521;27;64309;-75
2023/05/10 05:05:24;;;;;;;;;0.00;0.00;;;;;21.57;48.13;100647.47;5069505;28;45316;-75
2023/05/10 05:07:50;;;;;;;;;0.00;0.00;;;;;21.59;48.13;100648.19;5071213;27;71870;-75
2023/05/10 05:10:15;;;;;;;;;1.00;0.00;;;;;21.59;48.30;100650.88;5069161;28;46341;-75
2023/05/10 05:12:41;;;;;;;;;0.00;0.00;;;;;21.56;48.07;100649.25;5069892;27;45468;-73
2023/05/10 05:15:08;;;;;;;;;0.00;0.00;;;;;21.60;47.88;100650.75;5066046;28;45407;-74
2023/05/10 05:17:34;;;;;;;;;0.00;0.00;;;;;21.60;47.96;100649.88;5058093;27;45440;-74
2023/05/10 05:19:59;;;;;;;;;0.00;0.00;;;;;21.61;47.91;100651.59;5075049;27;45831;-75
2023/05/10 05:22:28;;;;;;;;;0.00;0.00;;;;;21.61;47.84;100640.94;5062924;28;74195;-75
2023/05/10 05:24:54;;;;;;;;;1.00;0.00;;;;;21.63;48.29;100640.81;5067721;27;45453;-75
2023/05/10 05:27:22;;;;;;;;;0.00;0.00;;;;;21.63;47.88;100646.16;5062237;27;45745;-74
2023/05/10 05:29:47;;;;;;;;;0.00;0.00;;;;;21.65;48.08;100646.88;5075399;28;47204;-74
2023/05/10 05:32:12;;;;;;;;;0.00;0.00;;;;;21.67;47.80;100639.63;5063590;28;45421;-75
2023/05/10 05:34:38;;;;;;;;;0.00;0.00;;;;;21.68;47.95;100649.31;5040986;28;69042;-75
2023/05/10 05:37:03;;;;;;;;;0.00;0.00;;;;;21.69;47.91;100656.34;5073518;28;45393;-74
2023/05/10 05:39:28;;;;;;;;;0.00;0.00;;;;;21.72;47.95;100661.44;5057084;27;68683;-74
2023/05/10 05:41:54;;;;;;;;;0.00;0.00;;;;;21.71;47.77;100655.28;5071824;28;69242;-83
2023/05/10 05:44:19;;;;;;;;;1.25;0.00;;;;;21.73;47.79;100658.66;5073465;27;59248;-72
2023/05/10 05:46:46;;;;;;;;;0.00;0.00;;;;;21.73;47.90;100660.50;5055008;28;74395;-90
2023/05/10 05:49:12;;;;;;;;;0.00;0.00;;;;;21.77;47.79;100668.13;5044310;28;71932;-80
2023/05/10 05:51:37;;;;;;;;;0.00;0.00;;;;;21.78;47.77;100666.31;5065154;28;45440;-75
2023/05/10 05:54:04;;;;;;;;;2.25;2.00;;;;;21.81;47.71;100660.75;5069934;27;45545;-75
2023/05/10 05:56:29;;;;;;;;;3.00;3.00;;;;;21.83;47.92;100674.78;5059659;28;45421;-76
2023/05/10 05:58:55;;;;;;;;;2.00;2.00;;;;;21.82;47.74;100666.94;5062969;27;45334;-76
2023/05/10 06:01:21;;;;;;;;;4.00;4.00;;;;;21.85;47.98;100674.69;5059732;28;72053;-76
2023/05/10 06:03:46;;;;;;;;;2.00;2.00;;;;;21.83;48.11;100668.63;5049585;28;45360;-76
2023/05/10 06:06:12;;;;;;;;;4.00;4.00;;;;;21.87;48.19;100678.06;5073083;27;45469;-75
2023/05/10 06:08:38;;;;;;;;;4.25;3.00;;;;;21.90;48.12;100673.38;5067649;27;45582;-81
2023/05/10 06:11:04;;;;;;;;;5.25;4.25;;;;;21.90;47.91;100675.19;5058524;28;45640;-83
2023/05/10 06:13:32;;;;;;;;;3.25;3.25;;;;;21.94;48.39;100682.84;5050058;28;45249;-74
2023/05/10 06:16:02;;;;;;;;;4.00;4.00;;;;;21.93;48.49;100673.13;5067772;28;45521;-74
2023/05/10 06:18:27;;;;;;;;;5.00;4.75;;;;;21.97;48.67;100685.28;5087204;27;46953;-75
2023/05/10 06:20:52;;;;;;;;;7.50;5.25;;;;;21.98;48.80;100678.97;5064970;28;71690;-75
2023/05/10 06:23:18;;;;;;;;;6.00;5.75;;;;;22.00;48.93;100677.03;5051892;28;63802;-78
2023/05/10 06:25:43;;;;;;;;;6.25;5.00;;;;;22.03;49.31;100681.28;5070776;28;45521;-78
2023/05/10 06:28:08;;;;;;;;;7.00;6.00;;;;;22.05;49.27;100679.34;5062173;28;72010;-86
2023/05/10 06:30:36;;;;;;;;;5.75;5.25;;;;;22.08;49.21;100688.91;5072269;28;45541;-78
2023/05/10 06:33:01;;;;;;;;;6.25;4.50;;;;;22.10;49.73;100695.00;5071131;28;45506;-81
2023/05/10 06:35:26;;;;;;;;;5.25;4.50;;;;;22.08;49.76;100681.78;5071923;27;45315;-81
2023/05/10 06:37:52;;;;;;;;;8.75;7.75;;;;;22.12;50.02;100696.56;5058912;28;45960;-81
2023/05/10 06:40:18;;;;;;;;;6.25;5.50;;;;;22.13;50.09;100697.41;5060184;28;45349;-83
2023/05/10 06:42:44;;;;;;;;;7.25;5.00;;;;;22.16;50.52;100691.84;5068819;27;45525;-82
2023/05/10 06:45:11;;;;;;;;;4.75;4.75;;;;;22.15;50.71;100687.47;5066308;28;45423;-82
2023/05/10 06:47:36;;;;;;;;;4.00;3.75;;;;;22.19;50.31;100697.81;5065576;27;46443;-74
2023/05/10 06:50:01;;;;;;;;;5.75;4.00;;;;;22.18;50.37;100696.09;5056649;28;58100;-81
2023/05/10 06:52:27;;;;;;;;;5.00;4.50;;;;;22.19;50.62;100695.13;5065898;27;46090;-77
2023/05/10 06:54:52;;;;;;;;;4.25;4.25;;;;;22.18;50.50;100695.25;5066242;28;65279;-85
2023/05/10 06:57:17;;;;;;;;;5.00;3.75;;;;;22.18;50.37;100693.44;5064246;28;48083;-80
2023/05/10 06:59:43;;;;;;;;;3.25;3.00;;;;;22.23;51.06;100706.41;5049587;28;45863;-75
2023/05/10 07:02:08;;;;;;;;;3.25;2.25;;;;;22.25;50.67;100709.81;5064250;28;45690;-85
2023/05/10 07:04:34;;;;;;;;;3.00;3.00;;;;;22.23;50.61;100703.75;5070444;27;46064;-94
2023/05/10 07:06:59;;;;;;;;;3.25;2.25;;;;;22.25;50.91;100709.81;5058085;28;47440;-78
2023/05/10 07:09:24;;;;;;;;;2.25;2.25;;;;;22.25;50.62;100701.81;5073173;28;45276;-81
2023/05/10 07:11:50;;;;;;;;;2.25;2.25;;;;;22.26;50.74;100711.53;5052887;28;45465;-74
2023/05/10 07:14:15;;;;;;;;;4.00;1.50;;;;;22.26;50.79;100708.00;5077386;27;45197;-76
2023/05/10 07:16:44;;;;;;;;;2.25;2.25;;;;;22.30;50.71;100702.34;5055777;28;57818;-80
2023/05/10 07:19:09;;;;;;;;;3.75;2.25;;;;;22.29;50.62;100715.78;5070899;27;46040;-73
2023/05/10 07:21:35;;;;;;;;;3.00;3.00;;;;;22.31;51.30;100724.50;5067269;27;45401;-74
2023/05/10 07:24:00;;;;;;;;;3.50;1.75;;;;;22.32;51.30;100723.56;5069855;27;45502;-73
2023/05/10 07:26:26;;;;;;;;;2.75;1.75;;;;;22.32;51.18;100718.22;5053350;28;47775;-74
2023/05/10 07:28:51;;;;;;;;;5.25;2.25;;;;;22.31;50.96;100722.72;5069142;27;45600;-73
2023/05/10 07:31:16;;;;;;;;;1.50;1.50;;;;;22.33;51.34;100719.94;5073163;27;45651;-75
2023/05/10 07:33:42;;;;;;;;;2.50;2.25;;;;;22.35;50.75;100723.31;5072874;28;45450;-76
2023/05/10 07:36:07;;;;;;;;;2.25;2.25;;;;;22.33;51.29;100720.78;5072099;27;63471;-76
2023/05/10 07:38:33;;;;;;;;;2.00;2.00;;;;;22.33;50.93;100711.94;5058680;28;45969;-76
2023/05/10 07:40:58;;;;;;;;;3.00;1.25;;;;;22.35;51.16;100715.31;5050724;28;45444;-76
2023/05/10 07:43:23;;;;;;;;;2.50;1.25;;;;;22.36;51.07;100720.56;5064576;28;68468;-76
2023/05/10 07:45:49;;;;;;;;;2.50;2.00;;;;;22.35;51.11;100723.31;5064496;28;73249;-76
2023/05/10 07:48:14;;;;;;;;;2.00;2.00;;;;;22.35;50.86;100723.31;5063317;28;64664;-76
2023/05/10 07:50:42;;;;;;;;;2.75;2.00;;;;;22.38;50.86;100728.41;5070655;28;45513;-76
2023/05/10 07:53:07;;;;;;;;;1.75;1.25;;;;;22.34;50.85;100722.47;5056947;28;45239;-76
2023/05/10 07:55:32;;;;;;;;;3.75;2.00;;;;;22.34;50.72;100727.78;5076198;27;45752;-76
2023/05/10 07:58:00;;;;;;;;;1.00;1.00;;;;;22.35;50.71;100724.16;5058931;28;45367;-76
2023/05/10 08:00:26;;;;;;;;;3.25;0.75;;;;;22.34;50.59;100719.78;5073910;27;45488;-76
2023/05/10 08:02:51;;;;;;;;;2.25;2.25;;;;;22.34;50.53;100729.63;5076773;28;45532;-76
2023/05/10 08:05:17;;;;;;;;;2.00;1.75;;;;;22.31;50.56;100725.38;5069181;28;46734;-76
2023/05/10 08:07:42;;;;;;;;;3.75;1.00;;;;;22.28;50.34;100720.28;5078604;27;45695;-76
2023/05/10 08:10:09;;;;;;;;;3.50;1.25;;;;;22.29;50.18;100722.00;5071452;28;45661;-76
2023/05/10 08:12:35;;;;;;;;;1.50;1.50;;;;;22.31;50.28;100736.03;5062230;28;45651;-76
2023/05/10 08:15:00;;;;;;;;;2.00;1.25;;;;;22.30;50.07;100736.16;5058884;28;47361;-76
2023/05/10 08:17:25;;;;;;;;;2.25;0.25;;;;;22.30;50.26;100733.50;5060967;28;58092;-76
2023/05/10 08:19:51;;;;;;;;;4.25;2.75;;;;;22.29;50.02;100729.13;5050047;28;45207;-76
2023/05/10 08:22:16;;;;;;;;;1.00;1.00;;;;;22.27;50.27;100734.56;5071252;27;67217;-76
2023/05/10 08:24:41;;;;;;;;;1.75;0.25;;;;;22.28;49.92;100740.75;5061150;28;54384;-76
2023/05/10 08:27:08;;;;;;;;;4.75;1.00;;;;;22.28;49.88;100735.44;5075755;27;45391;-76
2023/05/10 08:29:33;;;;;;;;;1.00;1.00;;;;;22.25;49.84;100749.78;5046578;28;45585;-76
2023/05/10 08:32:00;;;;;;;;;1.25;1.25;;;;;22.24;50.03;100750.78;5074753;28;45347;-76
2023/05/10 08:34:26;;;;;;;;;2.00;2.00;;;;;22.25;49.96;100749.78;5077809;27;47204;-76
2023/05/10 08:36:51;;;;;;;;;4.50;2.25;;;;;22.23;49.97;100751.72;5077106;28;45525;-76
2023/05/10 08:39:16;;;;;;;;;1.25;1.25;;;;;22.21;49.89;100756.34;5065913;27;61246;-76
2023/05/10 08:41:44;;;;;;;;;1.25;1.25;;;;;22.23;49.86;100772.22;5074242;28;67348;-76
2023/05/10 08:44:10;;;;;;;;;1.25;1.25;;;;;22.22;49.53;100771.34;5065795;28;45477;-76
2023/05/10 08:46:39;;;;;;;;;2.00;1.25;;;;;22.19;49.98;100763.59;5073407;28;45738;-76
2023/05/10 08:49:07;;;;;;;;;2.75;1.00;;;;;22.18;49.73;100769.88;5062573;27;45462;-77
2023/05/10 08:51:36;;;;;;;;;0.75;0.25;;;;;22.19;49.82;100766.28;5073436;28;45513;-76
2023/05/10 08:54:03;;;;;;;;;3.25;1.00;;;;;22.21;49.74;100776.81;5048119;28;47286;-76
2023/05/10 08:56:28;;;;;;;;;4.75;1.25;;;;;22.17;49.51;100773.53;5081006;27;45831;-76
2023/05/10 08:58:53;;;;;;;;;1.00;1.00;;;;;22.21;49.87;100784.81;5074084;28;60761;-76
2023/05/10 09:01:20;;;;;;;;;1.25;0.25;;;;;22.19;50.07;100791.09;5064651;28;63092;-76
2023/05/10 09:03:47;;;;;;;;;2.00;1.00;;;;;22.22;50.00;100787.34;5086840;27;70953;-76
2023/05/10 09:06:13;;;;;;;;;0.50;0.50;;;;;22.24;49.86;100795.22;5072879;27;45721;-76
2023/05/10 09:08:39;;;;;;;;;1.25;0.25;;;;;22.24;49.75;100796.09;5065350;27;45330;-76
2023/05/10 09:11:05;;;;;;;;;0.25;0.25;;;;;22.24;49.53;100796.09;5051233;28;45715;-76
2023/05/10 09:13:30;;;;;;;;;1.25;0.25;;;;;22.25;49.63;100802.28;5073367;28;46242;-76
2023/05/10 09:15:56;;;;;;;;;1.75;1.00;;;;;22.27;49.86;100795.03;5063354;27;45268;-76
2023/05/10 09:18:21;;;;;;;;;0.25;0.25;;;;;22.25;49.79;100797.78;5073893;28;45300;-76
2023/05/10 09:20:48;;;;;;;;;1.25;1.25;;;;;22.29;49.87;100806.44;5063929;28;45485;-77
2023/05/10 09:23:13;;;;;;;;;1.50;1.25;;;;;22.29;49.98;100811.75;5077878;27;46540;-76
2023/05/10 09:25:41;;;;;;;;;1.00;0.75;;;;;22.29;49.88;100809.97;5059227;27;61943;-76
2023/05/10 09:28:08;;;;;;;;;1.00;1.00;;;;;22.30;49.83;100808.97;5077095;27;45355;-76
2023/05/10 09:30:33;;;;;;;;;2.25;2.25;;;;;22.33;49.85;100823.91;5075863;27;45370;-77
2023/05/10 09:32:59;;;;;;;;;1.25;1.25;;;;;22.33;49.53;100821.25;5074170;28;68226;-76
2023/05/10 09:35:26;;;;;;;;;1.75;0.25;;;;;22.35;49.61;100829.97;5047928;28;45355;-76
2023/05/10 09:37:53;;;;;;;;;1.75;1.25;;;;;22.35;49.63;100836.16;5078115;27;45237;-77
2023/05/10 09:40:21;;;;;;;;;2.00;2.00;;;;;22.34;49.72;100839.78;5075700;27;45522;-76
2023/05/10 09:43:00;;;;;;;;;0.25;0.25;;;;;22.34;49.33;100839.78;5080217;27;45508;-77
2023/05/10 09:45:31;;;;;;;;;1.50;1.50;;;;;22.35;49.46;100837.97;5059923;28;45377;-76
2023/05/10 09:47:57;;;;;;;;;3.00;3.00;;;;;22.36;49.67;100839.66;5074788;27;45352;-76
2023/05/10 09:50:23;;;;;;;;;2.50;2.00;;;;;22.34;49.71;100839.78;5072605;27;45670;-76
2023/05/10 09:52:51;;;;;;;;;2.00;1.75;;;;;22.36;49.78;100839.66;5067558;27;47153;-76
2023/05/10 09:55:19;;;;;;;;;2.75;1.25;;;;;22.35;49.58;100845.97;5070708;28;45456;-76
2023/05/10 09:57:45;;;;;;;;;1.50;1.25;;;;;22.34;49.65;100841.59;5076977;27;45637;-77
2023/05/10 10:00:18;;;;;;;;;2.75;1.50;;;;;22.36;49.42;100847.66;5075236;28;45545;-77
2023/05/10 10:02:45;;;;;;;;;1.50;0.25;;;;;22.35;49.51;100848.66;5070687;28;46295;-77
2023/05/10 10:05:11;;;;;;;;;3.00;0.25;;;;;22.36;49.77;100845.00;5069333;27;45457;-77
2023/05/10 10:07:37;;;;;;;;;2.25;0.75;;;;;22.33;49.68;100848.75;5071976;27;60518;-77
2023/05/10 10:10:03;;;;;;;;;3.25;1.25;;;;;22.32;49.27;100854.19;5071108;27;45355;-77
2023/05/10 10:12:29;;;;;;;;;3.50;2.00;;;;;22.34;49.22;100852.25;5083743;27;46622;-77
2023/05/10 10:14:55;;;;;;;;;2.25;2.25;;;;;22.32;49.23;100846.19;5066014;28;45620;-77
2023/05/10 10:17:21;;;;;;;;;2.25;1.25;;;;;22.31;49.40;100845.34;5067571;27;45385;-77
2023/05/10 10:19:48;;;;;;;;;2.00;1.25;;;;;22.32;49.13;100846.19;5073721;27;58459;-77
2023/05/10 10:22:13;;;;;;;;;2.25;1.75;;;;;22.32;49.30;100860.38;5074588;27;63758;-77
2023/05/10 10:24:41;;;;;;;;;2.50;1.75;;;;;22.32;49.18;100860.38;5072458;27;56757;-77
2023/05/10 10:27:44;;;;;;;;;2.00;2.00;;;;;22.31;49.42;100856.03;5063025;28;45411;-76
2023/05/10 10:30:41;;;;;;;;;5.00;3.00;;;;;22.31;48.94;100849.81;5072513;27;45398;-77
2023/05/10 10:33:39;;;;;;;;;4.50;3.00;;;;;22.31;48.78;100841.81;5055454;27;47299;-77
2023/05/10 10:36:05;;;;;;;;;2.00;2.00;;;;;22.27;49.17;100841.19;5073806;27;45860;-77
2023/05/10 10:38:59;;;;;;;;;3.25;2.25;;;;;22.29;49.18;100841.09;5068372;28;45287;-77
2023/05/10 10:41:29;;;;;;;;;3.75;1.25;;;;;22.29;49.12;100849.09;5063280;27;45555;-76
2023/05/10 10:44:25;;;;;;;;;4.75;2.25;;;;;22.29;48.59;100849.97;5063251;27;45501;-76
2023/05/10 10:47:00;;;;;;;;;1.75;1.75;;;;;22.29;49.22;100847.28;5076895;27;45480;-76
2023/05/10 10:49:26;;;;;;;;;3.25;2.00;;;;;22.28;49.08;100842.06;5065282;28;45506;-76
2023/05/10 10:52:23;;;;;;;;;5.50;2.25;;;;;22.30;48.96;100850.81;5078759;27;45378;-76
2023/05/10 10:54:52;;;;;;;;;2.00;2.00;;;;;22.27;48.77;100845.69;5068084;27;46053;-76
2023/05/10 10:57:19;;;;;;;;;1.75;1.75;;;;;22.29;48.62;100854.41;5075806;27;45473;-77
2023/05/10 10:59:45;;;;;;;;;3.50;2.25;;;;;22.29;48.83;100852.63;5067408;27;45428;-76
2023/05/10 11:02:17;;;;;;;;;3.50;3.00;;;;;22.29;48.65;100854.41;5070815;28;45363;-76
2023/05/10 11:04:43;;;;;;;;;4.00;2.75;;;;;22.27;48.66;100848.34;5073086;28;47033;-77
2023/05/10 11:07:19;;;;;;;;;2.50;2.50;;;;;22.28;48.71;100850.91;5072997;27;45803;-77
2023/05/10 11:09:46;;;;;;;;;4.00;3.00;;;;;22.27;48.64;100851.88;5063154;28;45387;-76
2023/05/10 11:12:12;;;;;;;;;3.75;3.75;;;;;22.25;48.98;100852.94;5079368;27;45339;-76
2023/05/10 11:14:37;;;;;;;;;5.00;2.25;;;;;22.27;48.53;100853.69;5066221;28;45439;-75
2023/05/10 11:17:22;;;;;;;;;6.75;5.00;;;;;22.28;48.60;100850.91;5069815;27;64224;-75
2023/05/10 11:20:10;;;;;;;;;4.00;3.00;;;;;22.26;48.38;100852.81;5061513;28;45465;-76
2023/05/10 11:22:52;;;;;;;;;2.75;2.25;;;;;22.26;48.72;100846.66;5075731;27;46108;-76
2023/05/10 11:25:17;;;;;;;;;4.25;2.25;;;;;22.26;48.94;100850.16;5067355;27;45583;-76
2023/05/10 11:27:43;;;;;;;;;6.00;4.00;;;;;22.27;48.81;100843.03;5086393;27;45363;-76